createdAt,value
2022-10-06T00:02:23.651Z,102132.03
2022-10-06T00:04:50.412Z,102148.19
2022-10-06T00:07:17.356Z,102150.78
2022-10-06T00:09:43.879Z,102153.94
2022-10-06T00:12:10.890Z,102157.38
2022-10-06T00:14:37.835Z,102162.59
2022-10-06T00:17:04.764Z,102167.69
2022-10-06T00:19:31.563Z,102179.25
2022-10-06T00:21:58.523Z,102182.78
2022-10-06T00:24:25.859Z,102182.53
2022-10-06T00:26:52.360Z,102189.44
2022-10-06T00:29:18.938Z,102206.72
2022-10-06T00:31:45.838Z,102207.94
2022-10-06T00:34:12.955Z,102207.69
2022-10-06T00:36:39.651Z,102218.38
2022-10-06T00:39:06.499Z,102213.66
2022-10-06T00:41:33.096Z,102226.75
2022-10-06T00:43:59.765Z,102228.91
2022-10-06T00:46:40.558Z,102242.84
2022-10-06T00:49:22.061Z,102235.97
2022-10-06T00:51:52.869Z,102256.28
2022-10-06T00:54:19.906Z,102251.53
2022-10-06T00:56:46.629Z,102264.16
2022-10-06T00:59:16.622Z,102263.13
2022-10-06T01:01:52.315Z,102265.72
2022-10-06T01:04:19.538Z,102267.13
2022-10-06T01:06:52.805Z,102275.47
2022-10-06T01:09:20.112Z,102277.13
2022-10-06T01:11:50.169Z,102285.16
2022-10-06T01:14:19.799Z,102286.97
2022-10-06T01:16:51.982Z,102288.94
2022-10-06T01:19:36.774Z,102294.75
2022-10-06T01:22:06.007Z,102290.19
2022-10-06T01:24:33.047Z,102292.78
2022-10-06T01:27:01.331Z,102304.31
2022-10-06T01:29:28.075Z,102306.94
2022-10-06T01:31:54.976Z,102316.31
2022-10-06T01:34:21.466Z,102318.47
2022-10-06T01:36:47.957Z,102320.19
2022-10-06T01:39:14.424Z,102330.63
2022-10-06T01:41:40.864Z,102327.53
2022-10-06T01:44:07.319Z,102331.22
2022-10-06T01:46:33.939Z,102326.63
2022-10-06T01:49:00.487Z,102326.34
2022-10-06T01:51:26.922Z,102343.09
2022-10-06T01:53:53.463Z,102338.81
2022-10-06T01:56:21.138Z,102342.16
2022-10-06T01:58:48.375Z,102349.72
2022-10-06T02:01:15.763Z,102346.16
2022-10-06T02:03:42.285Z,102344.97
2022-10-06T02:06:09.359Z,102354.31
2022-10-06T02:08:35.942Z,102355.84
2022-10-06T02:11:09.229Z,102358.94
2022-10-06T02:13:36.574Z,102361.53
2022-10-06T02:16:06.711Z,102368.91
2022-10-06T02:18:34.173Z,102367.81
2022-10-06T02:21:01.286Z,102369.34
2022-10-06T02:23:28.011Z,102378.56
2022-10-06T02:26:02.714Z,102379.16
2022-10-06T02:28:30.021Z,102383.59
2022-10-06T02:31:04.495Z,102396.31
2022-10-06T02:33:31.509Z,102401.22
2022-10-06T02:35:58.816Z,102404.59
2022-10-06T02:38:26.004Z,102398.59
2022-10-06T02:40:53.560Z,102398.59
2022-10-06T02:43:21.973Z,102402.28
2022-10-06T02:45:56.480Z,102411.78
2022-10-06T02:48:27.795Z,102423.31
2022-10-06T02:51:21.617Z,102426.81
2022-10-06T02:53:49.050Z,102418.41
2022-10-06T02:56:20.635Z,102420.34
2022-10-06T02:58:50.434Z,102436.25
2022-10-06T03:01:25.760Z,102432.44
2022-10-06T03:03:53.377Z,102433.47
2022-10-06T03:06:23.884Z,102436.25
2022-10-06T03:08:56.653Z,102455.66
2022-10-06T03:11:26.652Z,102454.19
2022-10-06T03:13:53.525Z,102456.16
2022-10-06T03:16:23.807Z,102462.81
2022-10-06T03:18:52.219Z,102463.56
2022-10-06T03:21:31.259Z,102467.25
2022-10-06T03:23:58.950Z,102477.28
2022-10-06T03:26:28.449Z,102474.84
2022-10-06T03:28:56.187Z,102478.47
2022-10-06T03:31:23.154Z,102485.72
2022-10-06T03:33:51.111Z,102486.06
2022-10-06T03:36:20.710Z,102483.94
2022-10-06T03:38:47.414Z,102485.53
2022-10-06T03:41:22.267Z,102495.91
2022-10-06T03:43:50.305Z,102506.19
2022-10-06T03:46:19.925Z,102509.09
2022-10-06T03:48:47.170Z,102514.09
2022-10-06T03:51:19.723Z,102512.56
2022-10-06T03:53:48.169Z,102518.59
2022-10-06T03:56:26.066Z,102519.16
2022-10-06T03:58:57.913Z,102517.94
2022-10-06T04:01:30.502Z,102523.38
2022-10-06T04:03:58.684Z,102524.84
2022-10-06T04:06:26.810Z,102530.56
2022-10-06T04:08:54.162Z,102534.38
2022-10-06T04:11:22.303Z,102545.00
2022-10-06T04:13:52.715Z,102538.66
2022-10-06T04:16:20.541Z,102548.03
2022-10-06T04:18:50.644Z,102554.59
2022-10-06T04:21:17.729Z,102562.72
2022-10-06T04:23:44.623Z,102566.66
2022-10-06T04:26:17.130Z,102571.78
2022-10-06T04:28:45.417Z,102571.47
2022-10-06T04:31:20.164Z,102579.50
2022-10-06T04:33:47.912Z,102574.03
2022-10-06T04:36:23.485Z,102579.78
2022-10-06T04:38:51.095Z,102586.25
2022-10-06T04:41:19.601Z,102594.47
2022-10-06T04:43:47.358Z,102595.50
2022-10-06T04:46:38.008Z,102596.56
2022-10-06T04:49:02.156Z,102610.47
2022-10-06T04:51:28.997Z,102608.25
2022-10-06T04:53:55.662Z,102609.97
2022-10-06T04:56:27.730Z,102613.53
2022-10-06T04:58:55.882Z,102613.34
2022-10-06T05:01:25.369Z,102619.63
2022-10-06T05:03:56.744Z,102621.16
2022-10-06T05:06:29.294Z,102632.47
2022-10-06T05:09:15.977Z,102637.56
2022-10-06T05:11:43.439Z,102635.72
2022-10-06T05:14:10.122Z,102633.16
2022-10-06T05:16:39.588Z,102635.28
2022-10-06T05:19:06.164Z,102641.56
2022-10-06T05:21:33.331Z,102645.38
2022-10-06T05:24:00.814Z,102654.50
2022-10-06T05:26:29.637Z,102658.41
2022-10-06T05:28:56.814Z,102666.22
2022-10-06T05:31:28.211Z,102665.94
2022-10-06T05:33:59.062Z,102669.72
2022-10-06T05:36:28.711Z,102673.81
2022-10-06T05:38:56.231Z,102683.66
2022-10-06T05:41:31.173Z,102685.34
2022-10-06T05:43:59.092Z,102688.81
2022-10-06T05:46:32.050Z,102682.22
2022-10-06T05:49:04.454Z,102691.56
2022-10-06T05:51:33.178Z,102691.06
2022-10-06T05:54:00.682Z,102698.72
2022-10-06T05:56:29.357Z,102696.91
2022-10-06T05:58:57.670Z,102705.31
2022-10-06T06:01:40.443Z,102711.31
2022-10-06T06:04:09.663Z,102715.03
2022-10-06T06:06:47.166Z,102714.28
2022-10-06T06:09:16.702Z,102721.00
2022-10-06T06:11:48.811Z,102728.78
2022-10-06T06:14:40.284Z,102735.06
2022-10-06T06:17:07.268Z,102737.59
2022-10-06T06:19:36.019Z,102742.22
2022-10-06T06:22:02.631Z,102742.00
2022-10-06T06:24:29.134Z,102739.19
2022-10-06T06:26:55.623Z,102745.94
2022-10-06T06:29:23.232Z,102754.78
2022-10-06T06:31:51.056Z,102751.44
2022-10-06T06:34:17.797Z,102751.84
2022-10-06T06:36:47.002Z,102747.66
2022-10-06T06:39:14.729Z,102750.53
2022-10-06T06:41:45.062Z,102750.75
2022-10-06T06:44:12.245Z,102767.91
2022-10-06T06:46:40.136Z,102769.88
2022-10-06T06:49:07.287Z,102772.78
2022-10-06T06:51:37.356Z,102776.41
2022-10-06T06:54:04.975Z,102787.03
2022-10-06T06:56:35.076Z,102789.94
2022-10-06T06:59:06.604Z,102799.84
2022-10-06T07:01:33.107Z,102796.06
2022-10-06T07:03:59.998Z,102801.94
2022-10-06T07:06:28.696Z,102805.91
2022-10-06T07:08:57.191Z,102815.94
2022-10-06T07:11:30.118Z,102809.97
2022-10-06T07:14:03.879Z,102812.91
2022-10-06T07:16:49.988Z,102811.75
2022-10-06T07:19:37.410Z,102814.72
2022-10-06T07:22:33.312Z,102836.81
2022-10-06T07:25:08.721Z,102833.22
2022-10-06T07:27:55.220Z,102835.72
2022-10-06T07:30:24.542Z,102842.34
2022-10-06T07:32:52.045Z,102852.47
2022-10-06T07:35:21.223Z,102845.38
2022-10-06T07:37:49.298Z,102860.50
2022-10-06T07:40:16.741Z,102864.88
2022-10-06T07:42:49.298Z,102868.75
2022-10-06T07:45:36.565Z,102882.09
2022-10-06T07:48:04.048Z,102877.34
2022-10-06T07:50:30.781Z,102877.16
2022-10-06T07:52:57.252Z,102885.75
2022-10-06T07:55:23.704Z,102888.13
2022-10-06T07:57:51.288Z,102892.72
2022-10-06T08:00:20.525Z,102898.81
2022-10-06T08:02:47.229Z,102900.91
2022-10-06T08:05:14.043Z,102895.59
2022-10-06T08:07:41.409Z,102898.78
2022-10-06T08:10:08.417Z,102899.59
2022-10-06T08:12:37.325Z,102900.03
2022-10-06T08:15:11.346Z,102906.81
2022-10-06T08:17:38.547Z,102907.72
2022-10-06T08:20:07.791Z,102907.84
2022-10-06T08:22:36.190Z,102906.94
2022-10-06T08:25:07.154Z,102916.56
2022-10-06T08:27:35.400Z,102917.63
2022-10-06T08:30:03.955Z,102930.78
2022-10-06T08:32:30.554Z,102925.66
2022-10-06T08:34:57.577Z,102927.00
2022-10-06T08:37:26.906Z,102928.34
2022-10-06T08:39:54.798Z,102933.19
2022-10-06T08:42:33.601Z,102933.47
2022-10-06T08:45:10.215Z,102948.03
2022-10-06T08:47:37.189Z,102947.66
2022-10-06T08:50:09.806Z,102942.34
2022-10-06T08:52:53.458Z,102943.50
2022-10-06T08:55:39.181Z,102958.84
2022-10-06T08:58:30.789Z,102952.13
2022-10-06T09:01:18.945Z,102957.56
2022-10-06T09:03:48.979Z,102969.31
2022-10-06T09:06:27.921Z,102968.25
2022-10-06T09:09:01.027Z,102969.22
2022-10-06T09:11:30.254Z,102970.13
2022-10-06T09:14:41.345Z,102979.19
2022-10-06T09:17:12.884Z,102980.09
2022-10-06T09:19:52.155Z,102980.97
2022-10-06T09:22:21.816Z,102973.81
2022-10-06T09:24:51.762Z,102976.63
2022-10-06T09:27:22.922Z,102985.69
2022-10-06T09:29:50.675Z,102984.72
2022-10-06T09:32:19.325Z,102976.53
2022-10-06T09:34:53.057Z,102985.16
2022-10-06T09:37:19.660Z,102989.16
2022-10-06T09:39:50.198Z,102982.66
2022-10-06T09:42:23.263Z,102997.03
2022-10-06T09:44:57.938Z,102989.47
2022-10-06T09:47:34.813Z,102991.63
2022-10-06T09:50:16.380Z,103001.75
2022-10-06T09:52:58.242Z,103005.72
2022-10-06T09:55:29.307Z,103012.06
2022-10-06T09:57:57.350Z,103003.78
2022-10-06T10:00:33.187Z,102992.78
2022-10-06T10:03:03.039Z,102996.78
2022-10-06T10:05:31.993Z,102997.34
2022-10-06T10:08:06.255Z,103001.97
2022-10-06T10:10:35.476Z,102989.78
2022-10-06T10:13:02.567Z,102999.91
2022-10-06T10:15:39.285Z,102998.94
2022-10-06T10:18:13.081Z,103005.22
2022-10-06T10:20:51.397Z,103001.75
2022-10-06T10:23:30.077Z,103002.03
2022-10-06T10:26:02.658Z,103016.44
2022-10-06T10:28:44.388Z,103004.53
2022-10-06T10:31:18.408Z,103005.63
2022-10-06T10:34:11.801Z,103007.16
2022-10-06T10:37:04.438Z,103016.84
2022-10-06T10:39:42.167Z,103008.88
2022-10-06T10:42:28.731Z,103015.03
2022-10-06T10:45:04.384Z,103015.69
2022-10-06T10:47:39.220Z,103021.84
2022-10-06T10:50:17.163Z,103025.44
2022-10-06T10:52:48.984Z,103023.59
2022-10-06T10:55:29.276Z,103033.75
2022-10-06T10:57:59.675Z,103030.25
2022-10-06T11:00:29.014Z,103045.88
2022-10-06T11:02:58.206Z,103037.94
2022-10-06T11:06:02.280Z,103050.13
2022-10-06T11:08:52.036Z,103040.34
2022-10-06T11:11:35.814Z,103040.06
2022-10-06T11:14:05.185Z,103037.25
2022-10-06T11:17:03.514Z,103023.53
2022-10-06T11:19:54.074Z,103020.66
2022-10-06T11:22:34.130Z,103034.53
2022-10-06T11:25:22.995Z,103036.91
2022-10-06T11:28:23.644Z,103032.25
2022-10-06T11:30:56.493Z,103031.16
2022-10-06T11:33:34.780Z,103036.66
2022-10-06T11:36:03.689Z,103043.81
2022-10-06T11:38:45.276Z,103040.72
2022-10-06T11:41:31.594Z,103033.34
2022-10-06T11:44:17.850Z,103026.66
2022-10-06T11:46:57.619Z,103025.59
2022-10-06T11:49:30.304Z,103029.94
2022-10-06T11:52:17.425Z,103025.69
2022-10-06T11:54:47.415Z,103035.78
2022-10-06T11:57:27.755Z,103029.63
2022-10-06T12:00:17.322Z,103021.13
2022-10-06T12:02:49.300Z,103030.56
2022-10-06T12:05:54.660Z,103026.81
2022-10-06T12:08:09.135Z,103012.94
2022-10-06T12:10:35.834Z,103008.38
2022-10-06T12:13:41.257Z,103010.66
2022-10-06T12:17:05.576Z,103018.59
2022-10-06T12:19:22.002Z,103014.50
2022-10-06T12:22:06.997Z,103008.84
2022-10-06T12:25:10.650Z,103014.94
2022-10-06T12:27:58.022Z,103015.50
2022-10-06T12:30:49.013Z,103018.97
2022-10-06T12:33:20.422Z,103017.38
2022-10-06T12:35:47.645Z,103017.41
2022-10-06T12:38:41.444Z,103017.88
2022-10-06T12:41:13.213Z,103025.53
2022-10-06T12:43:54.031Z,103014.00
2022-10-06T12:46:26.050Z,103015.50
2022-10-06T12:49:15.075Z,103006.09
2022-10-06T12:51:43.258Z,103002.38
2022-10-06T12:54:21.235Z,103017.69
2022-10-06T12:57:00.956Z,103014.31
2022-10-06T12:59:33.901Z,103009.59
2022-10-06T13:02:04.645Z,103004.31
2022-10-06T13:04:49.824Z,103014.59
2022-10-06T13:07:24.808Z,103014.59
2022-10-06T13:09:54.463Z,103016.03
2022-10-06T13:12:25.540Z,103001.47
2022-10-06T13:15:24.040Z,103004.50
2022-10-06T13:18:09.325Z,103006.34
2022-10-06T13:20:46.402Z,103014.84
2022-10-06T13:23:31.179Z,103018.50
2022-10-06T13:26:31.874Z,103018.03
2022-10-06T13:29:00.123Z,103016.56
2022-10-06T13:31:35.126Z,103004.47
2022-10-06T13:34:12.742Z,103010.72
2022-10-06T13:36:43.912Z,103013.63
2022-10-06T13:39:16.777Z,103010.25
2022-10-06T13:41:47.461Z,103008.41
2022-10-06T13:44:40.826Z,103012.06
2022-10-06T13:47:15.976Z,103002.19
2022-10-06T13:49:43.169Z,103004.38
2022-10-06T13:52:22.454Z,103006.56
2022-10-06T13:54:55.745Z,103007.38
2022-10-06T13:57:48.744Z,103017.03
2022-10-06T14:00:15.409Z,103009.88
2022-10-06T14:02:43.830Z,103007.47
2022-10-06T14:05:24.623Z,103015.25
2022-10-06T14:07:51.685Z,103017.69
2022-10-06T14:12:53.980Z,103018.72
2022-10-06T14:15:24.842Z,103022.38
2022-10-06T14:18:02.937Z,103017.78
2022-10-06T14:20:46.707Z,103021.38
2022-10-06T14:23:52.657Z,103015.84
2022-10-06T14:26:26.012Z,103011.16
2022-10-06T14:28:53.574Z,103026.69
2022-10-06T14:31:22.143Z,103013.84
2022-10-06T14:33:53.518Z,103012.56
2022-10-06T14:36:24.256Z,103012.16
2022-10-06T14:38:51.984Z,103015.00
2022-10-06T14:41:19.917Z,103002.78
2022-10-06T14:43:47.596Z,103008.59
2022-10-06T14:46:15.467Z,103010.28
2022-10-06T14:48:42.124Z,103004.25
2022-10-06T14:51:09.245Z,102995.56
2022-10-06T14:53:37.616Z,103002.97
2022-10-06T14:56:06.230Z,103000.50
2022-10-06T14:58:36.986Z,102997.97
2022-10-06T15:01:05.639Z,102992.94
2022-10-06T15:03:32.245Z,102991.69
2022-10-06T15:06:25.917Z,102984.66
2022-10-06T15:08:54.258Z,102989.16
2022-10-06T15:11:22.094Z,102986.44
2022-10-06T15:13:50.204Z,102994.31
2022-10-06T15:16:18.139Z,102985.97
2022-10-06T15:18:45.276Z,102988.78
2022-10-06T15:21:11.784Z,102986.34
2022-10-06T15:23:39.293Z,102981.78
2022-10-06T15:26:24.989Z,102989.41
2022-10-06T15:29:00.685Z,102984.03
2022-10-06T15:31:41.306Z,102985.06
2022-10-06T15:34:10.360Z,102981.53
2022-10-06T15:36:39.509Z,102976.88
2022-10-06T15:39:11.822Z,102981.53
2022-10-06T15:41:40.124Z,102974.41
2022-10-06T15:44:07.384Z,102977.78
2022-10-06T15:46:39.440Z,102974.09
2022-10-06T15:49:23.528Z,102976.63
2022-10-06T15:52:38.125Z,102976.41
2022-10-06T15:55:22.827Z,102982.03
2022-10-06T15:57:49.303Z,102979.19
2022-10-06T16:00:15.842Z,102975.44
2022-10-06T16:02:42.443Z,102985.22
2022-10-06T16:05:09.150Z,102979.19
2022-10-06T16:07:35.955Z,102986.97
2022-10-06T16:10:02.599Z,102984.63
2022-10-06T16:12:29.181Z,102986.31
2022-10-06T16:14:55.683Z,102982.59
2022-10-06T16:17:22.128Z,102982.41
2022-10-06T16:19:48.878Z,102981.41
2022-10-06T16:22:18.596Z,102987.25
2022-10-06T16:24:45.144Z,102989.97
2022-10-06T16:27:15.794Z,102988.25
2022-10-06T16:29:42.692Z,102988.28
2022-10-06T16:32:09.769Z,102985.28
2022-10-06T16:34:36.266Z,102983.63
2022-10-06T16:37:02.994Z,102982.06
2022-10-06T16:39:29.545Z,102979.72
2022-10-06T16:41:56.144Z,102987.13
2022-10-06T16:44:22.727Z,102986.94
2022-10-06T16:46:49.320Z,102979.72
2022-10-06T16:49:15.941Z,102993.06
2022-10-06T16:51:45.718Z,102984.88
2022-10-06T16:54:14.429Z,102986.13
2022-10-06T16:56:51.774Z,102984.22
2022-10-06T17:03:30.753Z,102978.78
2022-10-06T17:06:18.093Z,102982.97
2022-10-06T17:08:45.232Z,102992.19
2022-10-06T17:11:15.155Z,102987.84
2022-10-06T17:13:44.806Z,102988.03
2022-10-06T17:16:15.358Z,102988.56
2022-10-06T17:18:42.380Z,102977.97
2022-10-06T17:21:32.289Z,102976.63
2022-10-06T17:23:59.899Z,102982.34
2022-10-06T17:26:31.934Z,102972.66
2022-10-06T17:29:01.598Z,102977.00
2022-10-06T17:31:32.670Z,102989.41
2022-10-06T17:33:59.769Z,102982.00
2022-10-06T17:36:26.702Z,102986.97
2022-10-06T17:38:58.305Z,102985.91
2022-10-06T17:41:29.536Z,102980.38
2022-10-06T17:44:05.177Z,102974.84
2022-10-06T17:46:34.356Z,102984.91
2022-10-06T17:49:07.639Z,102973.19
2022-10-06T17:51:36.296Z,102981.97
2022-10-06T17:54:06.130Z,102979.53
2022-10-06T17:56:35.029Z,102982.91
2022-10-06T17:59:09.011Z,102975.69
2022-10-06T18:01:43.280Z,102977.06
2022-10-06T18:04:12.584Z,102976.75
2022-10-06T18:06:39.268Z,102973.69
2022-10-06T18:09:06.829Z,102974.88
2022-10-06T18:11:41.912Z,102975.31
2022-10-06T18:14:18.959Z,102976.25
2022-10-06T18:16:56.264Z,102958.97
2022-10-06T18:19:29.959Z,102965.72
2022-10-06T18:21:59.498Z,102964.19
2022-10-06T18:24:28.476Z,102971.38
2022-10-06T18:26:56.838Z,102957.81
2022-10-06T18:29:28.157Z,102958.72
2022-10-06T18:31:55.573Z,102960.97
2022-10-06T18:37:10.662Z,102956.16
2022-10-06T18:39:37.953Z,102953.47
2022-10-06T18:42:07.700Z,102953.91
2022-10-06T18:45:09.704Z,102956.19
2022-10-06T18:47:55.402Z,102962.13
2022-10-06T18:50:23.994Z,102962.38
2022-10-06T18:52:50.669Z,102962.00
2022-10-06T18:55:17.601Z,102962.28
2022-10-06T18:57:45.339Z,102954.41
2022-10-06T19:00:12.643Z,102956.34
2022-10-06T19:02:39.505Z,102953.84
2022-10-06T19:05:09.533Z,102956.88
2022-10-06T19:07:35.975Z,102956.72
2022-10-06T19:10:02.557Z,102958.19
2022-10-06T19:12:29.130Z,102957.47
2022-10-06T19:14:58.317Z,102951.69
2022-10-06T19:17:24.856Z,102956.00
2022-10-06T19:19:53.479Z,102952.22
2022-10-06T19:22:21.692Z,102945.09
2022-10-06T19:24:48.647Z,102955.31
2022-10-06T19:27:20.631Z,102962.00
2022-10-06T19:29:54.384Z,102956.56
2022-10-06T19:32:24.366Z,102960.66
2022-10-06T19:34:53.709Z,102955.81
2022-10-06T19:37:20.371Z,102955.41
2022-10-06T19:39:52.636Z,102959.66
2022-10-06T19:42:38.299Z,102956.88
2022-10-06T19:45:06.962Z,102958.78
2022-10-06T19:47:34.025Z,102955.78
2022-10-06T19:50:04.725Z,102957.13
2022-10-06T19:52:33.716Z,102943.94
2022-10-06T19:55:00.901Z,102958.66
2022-10-06T19:57:33.752Z,102953.22
2022-10-06T20:00:04.443Z,102952.03
2022-10-06T20:02:33.358Z,102960.34
2022-10-06T20:04:59.964Z,102960.22
2022-10-06T20:07:28.022Z,102956.44
2022-10-06T20:09:55.663Z,102948.91
2022-10-06T20:12:25.178Z,102952.63
2022-10-06T20:14:53.700Z,102963.34
2022-10-06T20:17:20.925Z,102965.25
2022-10-06T20:19:47.959Z,102962.44
2022-10-06T20:22:15.297Z,102955.19
2022-10-06T20:24:41.932Z,102963.59
2022-10-06T20:27:09.185Z,102964.88
2022-10-06T20:29:36.198Z,102961.59
2022-10-06T20:32:05.335Z,102961.09
2022-10-06T20:34:32.527Z,102959.34
2022-10-06T20:37:01.986Z,102957.09
2022-10-06T20:39:52.084Z,102958.69
2022-10-06T20:42:20.779Z,102956.94
2022-10-06T20:44:47.553Z,102954.38
2022-10-06T20:47:14.599Z,102952.56
2022-10-06T20:49:42.652Z,102949.03
2022-10-06T20:52:12.003Z,102949.53
2022-10-06T20:54:38.661Z,102948.59
2022-10-06T20:57:06.813Z,102950.16
2022-10-06T20:59:39.449Z,102955.94
2022-10-06T21:02:06.891Z,102945.03
2022-10-06T21:04:34.972Z,102948.94
2022-10-06T21:07:04.126Z,102938.38
2022-10-06T21:09:35.451Z,102937.94
2022-10-06T21:12:04.602Z,102930.13
2022-10-06T21:14:31.342Z,102931.44
2022-10-06T21:16:58.003Z,102934.88
2022-10-06T21:19:34.201Z,102929.72
2022-10-06T21:22:01.000Z,102939.94
2022-10-06T21:24:27.635Z,102939.69
2022-10-06T21:26:54.348Z,102927.53
2022-10-06T21:29:22.289Z,102938.22
2022-10-06T21:31:49.075Z,102930.94
2022-10-06T21:34:15.966Z,102936.91
2022-10-06T21:36:43.949Z,102929.97
2022-10-06T21:39:12.076Z,102938.03
2022-10-06T21:41:42.403Z,102924.81
2022-10-06T21:44:19.859Z,102916.53
2022-10-06T21:46:50.605Z,102921.25
2022-10-06T21:49:22.822Z,102926.44
2022-10-06T21:51:55.435Z,102914.00
2022-10-06T21:54:23.621Z,102913.56
2022-10-06T21:56:50.533Z,102904.19
2022-10-06T21:59:18.688Z,102904.47
2022-10-06T22:01:52.216Z,102897.47
2022-10-06T22:04:19.174Z,102898.50
2022-10-06T22:06:49.904Z,102895.91
2022-10-06T22:09:21.565Z,102894.16
2022-10-06T22:11:49.317Z,102890.78
2022-10-06T22:14:18.729Z,102879.63
2022-10-06T22:16:45.462Z,102882.72
2022-10-06T22:19:14.193Z,102877.88
2022-10-06T22:21:43.271Z,102879.69
2022-10-06T22:24:13.072Z,102882.28
2022-10-06T22:26:41.289Z,102876.09
2022-10-06T22:29:11.324Z,102878.97
2022-10-06T22:31:40.712Z,102865.22
2022-10-06T22:34:08.564Z,102873.53
2022-10-06T22:36:35.305Z,102871.19
2022-10-06T22:39:02.410Z,102868.13
2022-10-06T22:41:29.593Z,102862.41
2022-10-06T22:43:58.469Z,102866.81
2022-10-06T22:46:27.258Z,102858.00
2022-10-06T22:48:56.207Z,102847.41
2022-10-06T22:51:23.472Z,102847.66
2022-10-06T22:53:57.988Z,102845.59
2022-10-06T22:56:32.599Z,102847.41
2022-10-06T22:59:00.418Z,102848.25
2022-10-06T23:01:28.886Z,102846.72
2022-10-06T23:03:56.177Z,102845.94
2022-10-06T23:06:23.462Z,102848.00
2022-10-06T23:08:55.618Z,102834.31
2022-10-06T23:11:22.647Z,102826.97
2022-10-06T23:13:50.665Z,102828.34
2022-10-06T23:16:19.080Z,102822.13
2022-10-06T23:18:46.298Z,102820.53
2022-10-06T23:21:19.329Z,102813.59
2022-10-06T23:23:51.102Z,102812.31
2022-10-06T23:26:19.148Z,102813.34
2022-10-06T23:28:50.145Z,102808.44
2022-10-06T23:31:16.828Z,102806.63
2022-10-06T23:33:43.471Z,102803.47
2022-10-06T23:36:14.923Z,102797.81
2022-10-06T23:38:42.640Z,102805.06
2022-10-06T23:41:09.492Z,102795.50
2022-10-06T23:43:36.373Z,102794.75
2022-10-06T23:46:03.795Z,102798.63
2022-10-06T23:48:30.649Z,102790.38
2022-10-06T23:51:01.773Z,102786.22
2022-10-06T23:53:29.384Z,102781.53
2022-10-06T23:55:56.038Z,102783.34
2022-10-06T23:58:22.932Z,102779.69
